sensor_id;sensor_type;location;lat;lon;timestamp;pressure;altitude;pressure_sealevel;temperature;humidity
54816;BME280;40715;55.752;37.884;2023-05-07T00:02:20;100005.44;;;29.82;26.08
54816;BME280;40715;55.752;37.884;2023-05-07T00:04:47;100001.00;;;29.81;26.05
54816;BME280;40715;55.752;37.884;2023-05-07T00:07:14;100006.28;;;29.83;25.87
54816;BME280;40715;55.752;37.884;2023-05-07T00:09:41;100010.84;;;29.82;26.16
54816;BME280;40715;55.752;37.884;2023-05-07T00:12:08;100014.28;;;29.84;26.02
54816;BME280;40715;55.752;37.884;2023-05-07T00:14:36;100019.72;;;29.84;26.09
54816;BME280;40715;55.752;37.884;2023-05-07T00:17:03;100006.41;;;29.81;26.04
54816;BME280;40715;55.752;37.884;2023-05-07T00:19:30;100017.13;;;29.83;26.06
54816;BME280;40715;55.752;37.884;2023-05-07T00:21:57;100014.41;;;29.83;25.99
54816;BME280;40715;55.752;37.884;2023-05-07T00:24:25;100023.59;;;29.82;26.11
54816;BME280;40715;55.752;37.884;2023-05-07T00:26:52;100025.28;;;29.83;25.91
54816;BME280;40715;55.752;37.884;2023-05-07T00:29:19;100019.00;;;29.82;26.13
54816;BME280;40715;55.752;37.884;2023-05-07T00:31:46;100024.44;;;29.82;25.84
54816;BME280;40715;55.752;37.884;2023-05-07T00:34:15;100024.44;;;29.82;25.93
54816;BME280;40715;55.752;37.884;2023-05-07T00:36:42;100026.19;;;29.83;25.97
54816;BME280;40715;55.752;37.884;2023-05-07T00:39:09;100024.44;;;29.82;26.19
54816;BME280;40715;55.752;37.884;2023-05-07T00:41:36;100031.75;;;29.82;25.83
54816;BME280;40715;55.752;37.884;2023-05-07T00:44:03;100030.88;;;29.81;25.88
54816;BME280;40715;55.752;37.884;2023-05-07T00:46:32;100032.59;;;29.82;26.06
54816;BME280;40715;55.752;37.884;2023-05-07T00:48:59;100031.16;;;29.88;25.86
54816;BME280;40715;55.752;37.884;2023-05-07T00:51:27;100022.72;;;29.81;25.70
54816;BME280;40715;55.752;37.884;2023-05-07T00:53:55;100028.16;;;29.81;25.78
54816;BME280;40715;55.752;37.884;2023-05-07T00:56:22;100030.88;;;29.81;25.92
54816;BME280;40715;55.752;37.884;2023-05-07T00:58:50;100030.88;;;29.81;25.74
54816;BME280;40715;55.752;37.884;2023-05-07T01:01:17;100031.75;;;29.82;25.84
54816;BME280;40715;55.752;37.884;2023-05-07T01:03:44;100034.44;;;29.82;25.73
54816;BME280;40715;55.752;37.884;2023-05-07T01:06:12;100023.03;;;29.78;25.67
54816;BME280;40715;55.752;37.884;2023-05-07T01:08:40;100027.44;;;29.79;25.74
54816;BME280;40715;55.752;37.884;2023-05-07T01:11:08;100030.16;;;29.79;25.75
54816;BME280;40715;55.752;37.884;2023-05-07T01:13:37;100037.31;;;29.80;25.90
54816;BME280;40715;55.752;37.884;2023-05-07T01:16:05;100027.44;;;29.79;25.94
54816;BME280;40715;55.752;37.884;2023-05-07T01:18:33;100029.28;;;29.78;25.54
54816;BME280;40715;55.752;37.884;2023-05-07T01:21:01;100030.88;;;29.81;25.78
54816;BME280;40715;55.752;37.884;2023-05-07T01:23:30;100033.16;;;29.86;25.53
54816;BME280;40715;55.752;37.884;2023-05-07T01:25:57;100040.31;;;29.87;25.64
54816;BME280;40715;55.752;37.884;2023-05-07T01:28:24;100035.88;;;29.86;25.72
54816;BME280;40715;55.752;37.884;2023-05-07T01:30:54;100039.63;;;29.85;25.44
54816;BME280;40715;55.752;37.884;2023-05-07T01:33:23;100036.59;;;29.88;25.60
54816;BME280;40715;55.752;37.884;2023-05-07T01:35:53;100039.31;;;29.88;25.64
54816;BME280;40715;55.752;37.884;2023-05-07T01:38:21;100042.19;;;29.86;25.52
54816;BME280;40715;55.752;37.884;2023-05-07T01:40:49;100039.47;;;29.86;25.69
54816;BME280;40715;55.752;37.884;2023-05-07T01:43:17;100033.31;;;29.84;25.30
54816;BME280;40715;55.752;37.884;2023-05-07T01:45:44;100046.75;;;29.86;25.52
54816;BME280;40715;55.752;37.884;2023-05-07T01:48:13;100048.44;;;29.87;25.63
54816;BME280;40715;55.752;37.884;2023-05-07T01:50:42;100047.75;;;29.85;25.53
54816;BME280;40715;55.752;37.884;2023-05-07T01:53:10;100053.34;;;29.83;25.50
54816;BME280;40715;55.752;37.884;2023-05-07T01:55:37;100054.75;;;29.87;25.73
54816;BME280;40715;55.752;37.884;2023-05-07T01:58:04;100056.91;;;29.84;25.27
54816;BME280;40715;55.752;37.884;2023-05-07T02:00:31;100065.31;;;29.81;25.77
54816;BME280;40715;55.752;37.884;2023-05-07T02:02:59;100060.19;;;29.77;25.35
54816;BME280;40715;55.752;37.884;2023-05-07T02:05:26;100060.88;;;29.79;25.55
54816;BME280;40715;55.752;37.884;2023-05-07T02:07:53;100071.75;;;29.79;25.42
54816;BME280;40715;55.752;37.884;2023-05-07T02:10:20;100057.63;;;29.76;25.56
54816;BME280;40715;55.752;37.884;2023-05-07T02:12:47;100067.19;;;29.80;25.57
54816;BME280;40715;55.752;37.884;2023-05-07T02:15:15;100067.19;;;29.80;25.59
54816;BME280;40715;55.752;37.884;2023-05-07T02:18:03;100081.16;;;29.95;25.61
54816;BME280;40715;55.752;37.884;2023-05-07T02:20:31;100075.19;;;29.82;25.87
54816;BME280;40715;55.752;37.884;2023-05-07T02:22:58;100080.88;;;29.78;25.19
54816;BME280;40715;55.752;37.884;2023-05-07T02:25:25;100077.19;;;29.79;25.46
54816;BME280;40715;55.752;37.884;2023-05-07T02:27:52;100082.63;;;29.79;25.32
54816;BME280;40715;55.752;37.884;2023-05-07T02:30:19;100087.19;;;29.79;25.72
54816;BME280;40715;55.752;37.884;2023-05-07T02:32:48;100082.75;;;29.78;25.32
54816;BME280;40715;55.752;37.884;2023-05-07T02:35:15;100082.75;;;29.78;25.68
54816;BME280;40715;55.752;37.884;2023-05-07T02:37:42;100089.91;;;29.79;25.57
54816;BME280;40715;55.752;37.884;2023-05-07T02:40:09;100092.63;;;29.79;25.41
54816;BME280;40715;55.752;37.884;2023-05-07T02:42:37;100100.78;;;29.79;25.26
54816;BME280;40715;55.752;37.884;2023-05-07T02:45:04;100106.91;;;29.81;25.53
54816;BME280;40715;55.752;37.884;2023-05-07T02:47:31;100107.06;;;29.79;25.45
54816;BME280;40715;55.752;37.884;2023-05-07T02:49:58;100103.66;;;29.77;25.55
54816;BME280;40715;55.752;37.884;2023-05-07T02:52:25;100107.78;;;29.82;25.28
54816;BME280;40715;55.752;37.884;2023-05-07T02:54:53;100118.66;;;29.82;25.33
54816;BME280;40715;55.752;37.884;2023-05-07T02:57:22;100116.91;;;29.81;25.51
54816;BME280;40715;55.752;37.884;2023-05-07T02:59:49;100116.66;;;29.84;25.57
54816;BME280;40715;55.752;37.884;2023-05-07T03:02:16;100119.22;;;29.85;25.34
54816;BME280;40715;55.752;37.884;2023-05-07T03:04:43;100118.38;;;29.85;25.39
54816;BME280;40715;55.752;37.884;2023-05-07T03:07:10;100122.94;;;29.84;25.42
54816;BME280;40715;55.752;37.884;2023-05-07T03:09:37;100122.78;;;29.86;25.34
54816;BME280;40715;55.752;37.884;2023-05-07T03:12:04;100125.66;;;29.84;25.18
54816;BME280;40715;55.752;37.884;2023-05-07T03:14:31;100130.09;;;29.85;25.42
54816;BME280;40715;55.752;37.884;2023-05-07T03:16:58;100132.66;;;29.87;25.30
54816;BME280;40715;55.752;37.884;2023-05-07T03:19:25;100137.09;;;29.88;25.57
54816;BME280;40715;55.752;37.884;2023-05-07T03:21:54;100138.09;;;29.87;25.26
54816;BME280;40715;55.752;37.884;2023-05-07T03:24:22;100140.81;;;29.87;25.43
54816;BME280;40715;55.752;37.884;2023-05-07T03:26:49;100134.81;;;29.83;25.40
54816;BME280;40715;55.752;37.884;2023-05-07T03:29:16;100147.09;;;29.87;25.53
54816;BME280;40715;55.752;37.884;2023-05-07T03:31:43;100147.09;;;29.87;25.63
54816;BME280;40715;55.752;37.884;2023-05-07T03:34:10;100150.81;;;29.86;25.44
54816;BME280;40715;55.752;37.884;2023-05-07T03:36:37;100154.97;;;29.90;25.50
54816;BME280;40715;55.752;37.884;2023-05-07T03:39:04;100154.97;;;29.90;25.39
54816;BME280;40715;55.752;37.884;2023-05-07T03:41:32;100157.81;;;29.89;25.33
54816;BME280;40715;55.752;37.884;2023-05-07T03:43:59;100156.53;;;29.93;25.41
54816;BME280;40715;55.752;37.884;2023-05-07T03:46:26;100157.22;;;29.95;25.56
54816;BME280;40715;55.752;37.884;2023-05-07T03:48:54;100150.81;;;29.96;25.27
54816;BME280;40715;55.752;37.884;2023-05-07T03:51:21;100156.94;;;29.98;25.38
54816;BME280;40715;55.752;37.884;2023-05-07T03:53:48;100149.06;;;29.95;25.43
54816;BME280;40715;55.752;37.884;2023-05-07T03:56:16;100156.78;;;30.00;25.45
54816;BME280;40715;55.752;37.884;2023-05-07T03:58:45;100158.50;;;30.01;25.29
54816;BME280;40715;55.752;37.884;2023-05-07T04:01:12;100162.94;;;30.02;25.14
54816;BME280;40715;55.752;37.884;2023-05-07T04:03:39;100160.22;;;30.02;25.53
54816;BME280;40715;55.752;37.884;2023-05-07T04:06:06;100161.50;;;29.98;25.22
54816;BME280;40715;55.752;37.884;2023-05-07T04:08:33;100164.09;;;29.99;25.34
54816;BME280;40715;55.752;37.884;2023-05-07T04:11:00;100158.34;;;30.02;25.44
54816;BME280;40715;55.752;37.884;2023-05-07T04:13:27;100161.91;;;30.03;25.51
54816;BME280;40715;55.752;37.884;2023-05-07T04:15:55;100164.78;;;30.01;25.24
54816;BME280;40715;55.752;37.884;2023-05-07T04:18:22;100169.91;;;30.04;25.57
54816;BME280;40715;55.752;37.884;2023-05-07T04:20:49;100181.50;;;30.06;25.09
54816;BME280;40715;55.752;37.884;2023-05-07T04:23:16;100176.06;;;30.06;25.25
54816;BME280;40715;55.752;37.884;2023-05-07T04:25:43;100178.50;;;30.09;25.21
54816;BME280;40715;55.752;37.884;2023-05-07T04:28:11;100181.22;;;30.09;25.36
54816;BME280;40715;55.752;37.884;2023-05-07T04:30:38;100181.94;;;30.11;24.96
54816;BME280;40715;55.752;37.884;2023-05-07T04:33:05;100169.03;;;30.13;25.31
54816;BME280;40715;55.752;37.884;2023-05-07T04:35:33;100180.75;;;30.14;25.04
54816;BME280;40715;55.752;37.884;2023-05-07T04:38:00;100182.47;;;30.15;25.02
54816;BME280;40715;55.752;37.884;2023-05-07T04:40:29;100182.34;;;30.17;25.07
54816;BME280;40715;55.752;37.884;2023-05-07T04:42:56;100176.63;;;30.10;25.29
54816;BME280;40715;55.752;37.884;2023-05-07T04:45:23;100193.94;;;30.19;25.16
54816;BME280;40715;55.752;37.884;2023-05-07T04:47:50;100193.06;;;30.18;25.34
54816;BME280;40715;55.752;37.884;2023-05-07T04:50:17;100189.50;;;30.18;24.90
54816;BME280;40715;55.752;37.884;2023-05-07T04:52:46;100198.19;;;30.21;25.29
54816;BME280;40715;55.752;37.884;2023-05-07T04:55:13;100199.06;;;30.22;24.92
54816;BME280;40715;55.752;37.884;2023-05-07T04:57:40;100191.59;;;30.24;25.01
54816;BME280;40715;55.752;37.884;2023-05-07T05:00:08;100197.03;;;30.24;25.15
54816;BME280;40715;55.752;37.884;2023-05-07T05:02:36;100200.47;;;30.26;25.00
54816;BME280;40715;55.752;37.884;2023-05-07T05:05:03;100202.31;;;30.25;24.93
54816;BME280;40715;55.752;37.884;2023-05-07T05:07:32;100193.31;;;30.25;24.87
54816;BME280;40715;55.752;37.884;2023-05-07T05:09:59;100201.47;;;30.25;24.97
54816;BME280;40715;55.752;37.884;2023-05-07T05:12:26;100201.31;;;30.26;25.14
54816;BME280;40715;55.752;37.884;2023-05-07T05:14:53;100196.72;;;30.27;24.83
54816;BME280;40715;55.752;37.884;2023-05-07T05:17:20;100198.47;;;30.28;24.84
54816;BME280;40715;55.752;37.884;2023-05-07T05:19:47;100207.34;;;30.30;24.91
54816;BME280;40715;55.752;37.884;2023-05-07T05:22:14;100201.03;;;30.29;24.97
54816;BME280;40715;55.752;37.884;2023-05-07T05:24:41;100201.03;;;30.29;24.71
54816;BME280;40715;55.752;37.884;2023-05-07T05:27:08;100198.16;;;30.31;24.98
54816;BME280;40715;55.752;37.884;2023-05-07T05:29:35;100202.59;;;30.32;24.91
54816;BME280;40715;55.752;37.884;2023-05-07T05:32:02;100198.16;;;30.31;24.86
54816;BME280;40715;55.752;37.884;2023-05-07T05:34:30;100211.59;;;30.33;25.18
54816;BME280;40715;55.752;37.884;2023-05-07T05:36:57;100206.59;;;30.38;25.09
54816;BME280;40715;55.752;37.884;2023-05-07T05:39:25;100214.44;;;30.41;25.14
54816;BME280;40715;55.752;37.884;2023-05-07T05:41:53;100210.88;;;30.40;25.19
54816;BME280;40715;55.752;37.884;2023-05-07T05:44:20;100220.75;;;30.41;25.08
54816;BME280;40715;55.752;37.884;2023-05-07T05:46:47;100209.44;;;30.36;25.13
54816;BME280;40715;55.752;37.884;2023-05-07T05:49:16;100226.06;;;30.43;25.00
54816;BME280;40715;55.752;37.884;2023-05-07T05:51:43;100213.31;;;30.43;25.05
54816;BME280;40715;55.752;37.884;2023-05-07T05:54:10;100216.31;;;30.40;25.16
54816;BME280;40715;55.752;37.884;2023-05-07T05:56:37;100228.63;;;30.44;25.00
54816;BME280;40715;55.752;37.884;2023-05-07T05:59:04;100219.75;;;30.42;24.99
54816;BME280;40715;55.752;37.884;2023-05-07T06:01:32;100230.63;;;30.42;24.66
54816;BME280;40715;55.752;37.884;2023-05-07T06:03:59;100225.91;;;30.44;24.33
54816;BME280;40715;55.752;37.884;2023-05-07T06:06:26;100227.91;;;30.42;22.92
54816;BME280;40715;55.752;37.884;2023-05-07T06:08:55;100242.63;;;30.40;22.21
54816;BME280;40715;55.752;37.884;2023-05-07T06:11:22;100232.91;;;30.37;20.91
54816;BME280;40715;55.752;37.884;2023-05-07T06:13:49;100246.94;;;30.33;20.78
54816;BME280;40715;55.752;37.884;2023-05-07T06:16:16;100238.09;;;30.30;20.70
54816;BME280;40715;55.752;37.884;2023-05-07T06:18:43;100229.19;;;30.28;20.57
54816;BME280;40715;55.752;37.884;2023-05-07T06:21:13;100245.66;;;30.27;20.25
54816;BME280;40715;55.752;37.884;2023-05-07T06:23:41;100245.97;;;30.24;19.83
54816;BME280;40715;55.752;37.884;2023-05-07T06:26:08;100240.66;;;30.22;19.12
54816;BME280;40715;55.752;37.884;2023-05-07T06:28:36;100234.69;;;30.19;18.97
54816;BME280;40715;55.752;37.884;2023-05-07T06:31:13;100236.53;;;30.18;18.53
54816;BME280;40715;55.752;37.884;2023-05-07T06:33:42;100242.72;;;30.10;18.62
54816;BME280;40715;55.752;37.884;2023-05-07T06:36:10;100232.13;;;30.07;18.31
54816;BME280;40715;55.752;37.884;2023-05-07T06:38:37;100245.00;;;30.05;17.82
54816;BME280;40715;55.752;37.884;2023-05-07T06:41:05;100230.72;;;30.03;17.53
54816;BME280;40715;55.752;37.884;2023-05-07T06:43:33;100233.13;;;30.06;17.77
54816;BME280;40715;55.752;37.884;2023-05-07T06:46:00;100247.56;;;30.07;17.51
54816;BME280;40715;55.752;37.884;2023-05-07T06:48:27;100244.28;;;30.03;17.12
54816;BME280;40715;55.752;37.884;2023-05-07T06:50:54;100242.03;;;29.99;17.30
54816;BME280;40715;55.752;37.884;2023-05-07T06:53:22;100243.00;;;29.98;17.02
54816;BME280;40715;55.752;37.884;2023-05-07T06:55:49;100236.16;;;29.93;16.90
54816;BME280;40715;55.752;37.884;2023-05-07T06:58:16;100258.19;;;29.90;16.96
54816;BME280;40715;55.752;37.884;2023-05-07T07:00:43;100247.59;;;29.87;16.63
54816;BME280;40715;55.752;37.884;2023-05-07T07:03:11;100241.16;;;29.88;16.75
54816;BME280;40715;55.752;37.884;2023-05-07T07:05:39;100242.28;;;29.86;16.83
54816;BME280;40715;55.752;37.884;2023-05-07T07:08:10;100241.59;;;29.84;16.63
54816;BME280;40715;55.752;37.884;2023-05-07T07:10:37;100246.28;;;29.82;16.45
54816;BME280;40715;55.752;37.884;2023-05-07T07:13:04;100233.84;;;29.79;16.19
54816;BME280;40715;55.752;37.884;2023-05-07T07:15:31;100227.13;;;29.73;16.31
54816;BME280;40715;55.752;37.884;2023-05-07T07:17:58;100238.00;;;29.73;16.21
54816;BME280;40715;55.752;37.884;2023-05-07T07:20:25;100239.00;;;29.72;16.19
54816;BME280;40715;55.752;37.884;2023-05-07T07:22:52;100251.56;;;29.73;16.28
54816;BME280;40715;55.752;37.884;2023-05-07T07:25:19;100245.25;;;29.73;15.99
54816;BME280;40715;55.752;37.884;2023-05-07T07:27:46;100247.44;;;29.69;16.19
54816;BME280;40715;55.752;37.884;2023-05-07T07:30:13;100242.84;;;29.70;16.15
54816;BME280;40715;55.752;37.884;2023-05-07T07:32:40;100238.84;;;29.74;16.70
54816;BME280;40715;55.752;37.884;2023-05-07T07:35:08;100235.97;;;29.75;16.38
54816;BME280;40715;55.752;37.884;2023-05-07T07:37:35;100239.44;;;29.77;16.28
54816;BME280;40715;55.752;37.884;2023-05-07T07:40:02;100242.28;;;29.76;16.73
54816;BME280;40715;55.752;37.884;2023-05-07T07:42:30;100241.13;;;29.78;16.25
54816;BME280;40715;55.752;37.884;2023-05-07T07:44:57;100223.84;;;29.79;16.43
54816;BME280;40715;55.752;37.884;2023-05-07T07:47:24;100226.69;;;29.78;16.59
54816;BME280;40715;55.752;37.884;2023-05-07T07:49:51;100231.00;;;29.81;16.37
54816;BME280;40715;55.752;37.884;2023-05-07T07:52:18;100225.56;;;29.81;16.39
54816;BME280;40715;55.752;37.884;2023-05-07T07:54:45;100226.41;;;29.81;16.37
54816;BME280;40715;55.752;37.884;2023-05-07T07:57:12;100237.00;;;29.84;16.59
54816;BME280;40715;55.752;37.884;2023-05-07T07:59:39;100231.00;;;29.90;16.84
54816;BME280;40715;55.752;37.884;2023-05-07T08:02:06;100232.44;;;29.94;16.70
54816;BME280;40715;55.752;37.884;2023-05-07T08:04:33;100236.59;;;29.99;17.15
54816;BME280;40715;55.752;37.884;2023-05-07T08:07:01;100230.84;;;30.02;17.19
54816;BME280;40715;55.752;37.884;2023-05-07T08:09:28;100235.13;;;30.04;17.25
54816;BME280;40715;55.752;37.884;2023-05-07T08:11:55;100236.41;;;30.10;17.00
54816;BME280;40715;55.752;37.884;2023-05-07T08:14:22;100229.97;;;30.11;17.09
54816;BME280;40715;55.752;37.884;2023-05-07T08:16:49;100246.69;;;30.16;17.04
54816;BME280;40715;55.752;37.884;2023-05-07T08:19:16;100232.13;;;30.17;17.15
54816;BME280;40715;55.752;37.884;2023-05-07T08:21:43;100233.97;;;30.17;17.14
54816;BME280;40715;55.752;37.884;2023-05-07T08:24:17;100223.25;;;30.15;17.36
54816;BME280;40715;55.752;37.884;2023-05-07T08:26:44;100232.66;;;30.21;17.19
54816;BME280;40715;55.752;37.884;2023-05-07T08:29:13;100236.66;;;30.26;16.86
54816;BME280;40715;55.752;37.884;2023-05-07T08:31:40;100242.53;;;30.32;16.88
54816;BME280;40715;55.752;37.884;2023-05-07T08:34:07;100227.22;;;30.30;16.95
54816;BME280;40715;55.752;37.884;2023-05-07T08:36:35;100232.34;;;30.34;17.27
54816;BME280;40715;55.752;37.884;2023-05-07T08:39:02;100209.19;;;30.29;16.79
54816;BME280;40715;55.752;37.884;2023-05-07T08:41:30;100231.91;;;30.38;16.79
54816;BME280;40715;55.752;37.884;2023-05-07T08:43:58;100224.75;;;30.47;16.92
54816;BME280;40715;55.752;37.884;2023-05-07T08:46:31;100232.63;;;30.50;16.83
54816;BME280;40715;55.752;37.884;2023-05-07T08:48:58;100231.59;;;30.51;16.65
54816;BME280;40715;55.752;37.884;2023-05-07T08:51:26;100235.19;;;30.52;16.95
54816;BME280;40715;55.752;37.884;2023-05-07T08:53:53;100226.00;;;30.53;16.68
54816;BME280;40715;55.752;37.884;2023-05-07T08:56:21;100228.59;;;30.54;16.75
54816;BME280;40715;55.752;37.884;2023-05-07T08:58:48;100217.72;;;30.54;16.51
54816;BME280;40715;55.752;37.884;2023-05-07T09:01:16;100214.13;;;30.54;16.36
54816;BME280;40715;55.752;37.884;2023-05-07T09:03:44;100218.56;;;30.55;16.60
54816;BME280;40715;55.752;37.884;2023-05-07T09:06:12;100206.84;;;30.54;16.49
54816;BME280;40715;55.752;37.884;2023-05-07T09:08:40;100203.97;;;30.56;16.61
54816;BME280;40715;55.752;37.884;2023-05-07T09:11:07;100213.69;;;30.58;16.34
54816;BME280;40715;55.752;37.884;2023-05-07T09:13:34;100220.69;;;30.61;16.79
54816;BME280;40715;55.752;37.884;2023-05-07T09:16:10;100223.09;;;30.64;16.53
54816;BME280;40715;55.752;37.884;2023-05-07T09:18:44;100223.97;;;30.64;16.72
54816;BME280;40715;55.752;37.884;2023-05-07T09:21:15;100217.97;;;30.61;16.44
54816;BME280;40715;55.752;37.884;2023-05-07T09:23:42;100219.13;;;30.58;16.43
54816;BME280;40715;55.752;37.884;2023-05-07T09:26:09;100218.13;;;30.59;16.54
54816;BME280;40715;55.752;37.884;2023-05-07T09:28:39;100218.28;;;30.58;16.57
54816;BME280;40715;55.752;37.884;2023-05-07T09:31:09;100214.56;;;30.59;16.48
54816;BME280;40715;55.752;37.884;2023-05-07T09:33:37;100212.81;;;30.58;16.38
54816;BME280;40715;55.752;37.884;2023-05-07T09:36:05;100215.41;;;30.59;16.43
54816;BME280;40715;55.752;37.884;2023-05-07T09:38:34;100214.56;;;30.59;16.29
54816;BME280;40715;55.752;37.884;2023-05-07T09:41:06;100211.84;;;30.59;16.46
54816;BME280;40715;55.752;37.884;2023-05-07T09:43:35;100215.41;;;30.59;16.56
54816;BME280;40715;55.752;37.884;2023-05-07T09:46:03;100219.25;;;30.57;16.47
54816;BME280;40715;55.752;37.884;2023-05-07T09:48:39;100221.00;;;30.58;16.58
54816;BME280;40715;55.752;37.884;2023-05-07T09:51:15;100213.69;;;30.58;16.43
54816;BME280;40715;55.752;37.884;2023-05-07T09:53:45;100212.28;;;30.54;16.52
54816;BME280;40715;55.752;37.884;2023-05-07T09:56:14;100208.84;;;30.52;16.08
54816;BME280;40715;55.752;37.884;2023-05-07T09:58:43;100205.28;;;30.52;16.25
54816;BME280;40715;55.752;37.884;2023-05-07T10:01:12;100210.00;;;30.50;16.17
54816;BME280;40715;55.752;37.884;2023-05-07T10:03:41;100212.41;;;30.53;16.29
54816;BME280;40715;55.752;37.884;2023-05-07T10:06:09;100202.25;;;30.55;16.23
54816;BME280;40715;55.752;37.884;2023-05-07T10:08:37;100213.28;;;30.53;16.28
54816;BME280;40715;55.752;37.884;2023-05-07T10:11:04;100208.00;;;30.52;16.17
54816;BME280;40715;55.752;37.884;2023-05-07T10:13:33;100205.97;;;30.54;16.60
54816;BME280;40715;55.752;37.884;2023-05-07T10:16:05;100199.69;;;30.53;16.41
54816;BME280;40715;55.752;37.884;2023-05-07T10:18:33;100193.53;;;30.51;16.25
54816;BME280;40715;55.752;37.884;2023-05-07T10:21:11;100198.97;;;30.51;16.07
54816;BME280;40715;55.752;37.884;2023-05-07T10:23:38;100200.53;;;30.54;16.48
54816;BME280;40715;55.752;37.884;2023-05-07T10:26:07;100196.25;;;30.51;16.54
54816;BME280;40715;55.752;37.884;2023-05-07T10:28:39;100193.69;;;30.50;16.26
54816;BME280;40715;55.752;37.884;2023-05-07T10:34:00;100186.09;;;30.53;16.23
54816;BME280;40715;55.752;37.884;2023-05-07T10:36:28;100206.97;;;30.53;16.35
54816;BME280;40715;55.752;37.884;2023-05-07T10:38:55;100207.69;;;30.55;16.35
54816;BME280;40715;55.752;37.884;2023-05-07T10:41:22;100199.69;;;30.53;16.56
54816;BME280;40715;55.752;37.884;2023-05-07T10:43:49;100222.28;;;30.54;16.58
54816;BME280;40715;55.752;37.884;2023-05-07T10:46:18;100217.72;;;30.54;16.34
54816;BME280;40715;55.752;37.884;2023-05-07T10:51:31;100212.41;;;30.53;16.55
54816;BME280;40715;55.752;37.884;2023-05-07T10:56:39;100209.56;;;30.54;16.05
54816;BME280;40715;55.752;37.884;2023-05-07T11:01:59;100223.16;;;30.54;16.37
54816;BME280;40715;55.752;37.884;2023-05-07T11:04:26;100213.13;;;30.55;16.19
54816;BME280;40715;55.752;37.884;2023-05-07T11:15:09;100205.97;;;30.54;16.15
54816;BME280;40715;55.752;37.884;2023-05-07T11:17:57;100225.81;;;30.64;16.40
54816;BME280;40715;55.752;37.884;2023-05-07T11:20:54;100215.34;;;30.69;16.13
54816;BME280;40715;55.752;37.884;2023-05-07T11:26:09;100202.72;;;30.50;16.30
54816;BME280;40715;55.752;37.884;2023-05-07T11:28:41;100213.75;;;30.49;15.99
54816;BME280;40715;55.752;37.884;2023-05-07T11:31:09;100208.31;;;30.49;15.93
54816;BME280;40715;55.752;37.884;2023-05-07T11:33:37;100231.91;;;30.48;15.85
54816;BME280;40715;55.752;37.884;2023-05-07T11:36:05;100218.31;;;30.48;15.74
54816;BME280;40715;55.752;37.884;2023-05-07T11:38:35;100223.75;;;30.48;15.69
54816;BME280;40715;55.752;37.884;2023-05-07T11:41:05;100220.03;;;30.49;15.61
54816;BME280;40715;55.752;37.884;2023-05-07T11:43:32;100228.34;;;30.48;16.08
54816;BME280;40715;55.752;37.884;2023-05-07T11:46:09;100217.72;;;30.54;15.71
54816;BME280;40715;55.752;37.884;2023-05-07T11:48:38;100213.59;;;30.50;16.00
54816;BME280;40715;55.752;37.884;2023-05-07T11:51:06;100213.75;;;30.49;15.65
54816;BME280;40715;55.752;37.884;2023-05-07T11:53:37;100209.44;;;30.46;15.95
54816;BME280;40715;55.752;37.884;2023-05-07T11:56:09;100210.88;;;30.50;16.05
54816;BME280;40715;55.752;37.884;2023-05-07T11:58:37;100201.53;;;30.53;15.73
54816;BME280;40715;55.752;37.884;2023-05-07T12:01:06;100197.97;;;30.52;15.87
54816;BME280;40715;55.752;37.884;2023-05-07T12:03:34;100200.53;;;30.54;15.72
54816;BME280;40715;55.752;37.884;2023-05-07T12:06:02;100201.16;;;30.48;15.81
54816;BME280;40715;55.752;37.884;2023-05-07T12:08:29;100206.13;;;30.52;16.02
54816;BME280;40715;55.752;37.884;2023-05-07T12:10:56;100202.72;;;30.50;15.55
54816;BME280;40715;55.752;37.884;2023-05-07T12:13:25;100203.56;;;30.51;15.79
54816;BME280;40715;55.752;37.884;2023-05-07T12:15:53;100212.56;;;30.51;15.97
54816;BME280;40715;55.752;37.884;2023-05-07T12:18:22;100199.13;;;30.50;15.87
54816;BME280;40715;55.752;37.884;2023-05-07T12:20:50;100205.28;;;30.52;15.77
54816;BME280;40715;55.752;37.884;2023-05-07T12:23:17;100197.44;;;30.49;15.86
54816;BME280;40715;55.752;37.884;2023-05-07T12:25:45;100207.13;;;30.51;15.65
54816;BME280;40715;55.752;37.884;2023-05-07T12:28:16;100195.56;;;30.49;15.78
54816;BME280;40715;55.752;37.884;2023-05-07T12:30:45;100200.16;;;30.49;15.65
54816;BME280;40715;55.752;37.884;2023-05-07T12:33:17;100209.84;;;30.51;15.70
54816;BME280;40715;55.752;37.884;2023-05-07T12:35:44;100208.00;;;30.52;15.79
54816;BME280;40715;55.752;37.884;2023-05-07T12:38:13;100194.56;;;30.50;15.90
54816;BME280;40715;55.752;37.884;2023-05-07T12:43:17;100193.44;;;30.71;15.80
54816;BME280;40715;55.752;37.884;2023-05-07T12:45:49;100203.63;;;30.69;15.90
54816;BME280;40715;55.752;37.884;2023-05-07T12:48:17;100198.19;;;30.69;15.65
54816;BME280;40715;55.752;37.884;2023-05-07T12:50:44;100200.91;;;30.69;15.55
54816;BME280;40715;55.752;37.884;2023-05-07T12:53:11;100184.75;;;30.67;15.68
54816;BME280;40715;55.752;37.884;2023-05-07T12:55:41;100193.59;;;30.69;15.48
54816;BME280;40715;55.752;37.884;2023-05-07T12:58:17;100198.03;;;30.70;15.61
54816;BME280;40715;55.752;37.884;2023-05-07T13:00:47;100194.16;;;30.73;15.66
54816;BME280;40715;55.752;37.884;2023-05-07T13:03:26;100197.59;;;30.75;15.50
54816;BME280;40715;55.752;37.884;2023-05-07T13:05:56;100190.88;;;30.69;15.46
54816;BME280;40715;55.752;37.884;2023-05-07T13:08:26;100201.91;;;30.68;15.64
54816;BME280;40715;55.752;37.884;2023-05-07T13:10:54;100185.03;;;30.64;15.49